Details From EGPK - Prestwick
To EGHI - Southampton
Flight Number -
Tags Generated
Created
Modified
Stats Distance 297 nm / 549 km
Max Altitude 0 ft / 0 m
Waypoints 3
Social Downloads 1
Likes 0
Share VATSIM

Download

Looking for another format? Having issues loading an existing format? Contact us
Advertisement - Login to hide

Notes

Generated

Route

EGPK EAS EGHI

ID Type Via Altitude Latitude Longitude Leg Dist Tot Dist Heading (true) Name
O EGPK APT - 0 ft / 0 m 55.48836˚ -4.58741˚ - 0 nm - -
EAS NDB - 0 ft / 0 m 50.95503˚ -1.35612˚ 295 nm 295 nm 156° / 158° SOUTHAMPTON NDB
O EGHI APT - 0 ft / 0 m 50.94295˚ -1.36088˚ 0 nm 296 nm 194° / 194° -

Altitude Profile

Advertisement - Login to hide

Weather


0- 5 10 15 20 25 30 35+ Temperature / ° C

Clouds and Precipitation
Forecast for 2018-05-23 12:00 UTC. Updated 6 hours ago

Ground ~20,000 ft ~40,000 ft Winds

EGPK

Details ICAO EGPK (PIK)
Name Prestwick
Region United Kingdom
Timezone Europe/London (UTC+1.0)
Stats Elevation 65 ft / 20 m (AMSL)
Location 55.502302° -4.588363°
Runways 2
Magnetic Variation 2.653° W

METAR

EGPK 231720Z 23010KT 9999 FEW030 16/10 Q1025

Decode

TAF

TAF EGPK 231054Z 2312/2412 04008KT 9999 FEW020

Decode

Departure Runways

ID Width Length Bearing (true) Bearing (mag) Surface Threshold Offset Overrun Length
03 148 ft / 45 m 6,534 ft / 1,992 m 23.69° 26.34° Asphalt 538 ft / 164 m 0 ft / 0 m
13 151 ft / 46 m 9,789 ft / 2,984 m 121.38° 124.03° Asphalt 817 ft / 249 m 0 ft / 0 m
21 148 ft / 45 m 6,534 ft / 1,992 m 203.71° 206.36° Asphalt 0 ft / 0 m 0 ft / 0 m
31 151 ft / 46 m 9,789 ft / 2,984 m 301.42° 304.07° Asphalt 0 ft / 0 m 0 ft / 0 m

EGHI

Details ICAO EGHI (SOU)
Name Southampton
Region United Kingdom
Timezone Europe/London (UTC+1.0)
Stats Elevation 44 ft / 13 m (AMSL)
Location 50.950255° -1.356806°
Runways 1
Magnetic Variation 0.748° W

METAR

EGHI 231720Z 03007KT 360V080 9999 SCT040 18/10 Q1021

Decode

TAF

Not found

Destination Runways

ID Width Length Bearing (true) Bearing (mag) Surface Threshold Offset Overrun Length
02 121 ft / 37 m 5,650 ft / 1,722 m 19.33° 20.08° Asphalt 240 ft / 73 m 0 ft / 0 m
20 121 ft / 37 m 5,650 ft / 1,722 m 199.34° 200.09° Asphalt 144 ft / 44 m 0 ft / 0 m

Approach Navaids

Runway Type Ident Frequency Range Bearing (true) Bearing (mag) Slope Elevation
20 Localiser ISN 110.75 MHz 18 nm / 33 km 199.34° 200.09° - 44 ft / 13 m (AMSL)
20 Glidescope ISN 110.75 MHz 10 nm / 19 km 199.34° 200.09° 3.10° 44 ft / 13 m (AMSL)
20 DME ISN 110.75 MHz 18 nm / 33 km - - - 54 ft / 16 m (AMSL)

Popular Alternatives